Data for 05/03/2014

Time Sea-Level Adjusted Pressure Absolute Pressure Temperature Relative Humidity Dew Point   
(mb) (inHg) (mb) (inHg) (C) (F) (%) (C) (F)
00:05 1015 29.97 844 24.92 9.6 49.2 65 3.5 38.2
00:10 1015 29.97 844 24.92 9.6 49.2 65 3.5 38.2
00:15 1015 29.97 844 24.92 9.5 49.2 66 3.5 38.4
00:20 1015 29.97 844 24.92 9.5 49.1 66 3.5 38.2
00:25 1015 29.97 844 24.92 9.5 49.1 66 3.4 38.2
00:30 1015 29.97 844 24.92 9.4 49 66 3.5 38.3
00:35 1015 29.97 844 24.92 9.3 48.8 66 3.4 38.2
00:40 1015 29.97 844 24.92 9.4 48.8 66 3.3 37.9
00:45 1015 29.97 844 24.92 9.4 49 66 3.3 38
00:50 1014 29.94 844 24.92 9.4 48.9 65 3.2 37.8
00:55 1014 29.94 844 24.92 9.4 48.9 65 3.2 37.8
01:00 1014 29.94 844 24.92 9.3 48.8 66 3.3 37.9
01:05 1014 29.94 844 24.92 9.3 48.8 66 3.3 37.9
01:10 1014 29.94 844 24.92 9.2 48.6 67 3.3 38
01:15 1014 29.94 843 24.89 9.1 48.3 67 3.3 38
01:20 1014 29.94 843 24.89 9.1 48.3 67 3.3 37.9
01:25 1014 29.94 843 24.89 8.9 48.1 68 3.4 38.1
01:30 1014 29.94 843 24.89 8.8 47.9 69 3.4 38.1
01:35 1014 29.94 843 24.89 8.6 47.5 70 3.4 38.1
01:40 1014 29.94 843 24.89 8.5 47.4 70 3.4 38.1
01:45 1014 29.94 843 24.89 8.4 47.2 70 3.2 37.8
01:50 1014 29.94 843 24.89 8.4 47.1 70 3.2 37.7
01:55 1014 29.94 843 24.89 8.3 47 70 3.2 37.7
02:00 1014 29.94 843 24.89 8.3 46.9 70 3.1 37.6
02:05 1014 29.94 843 24.89 8.3 46.9 69 3 37.5
02:10 1014 29.94 843 24.89 8.3 46.9 69 3 37.4
02:15 1014 29.94 843 24.89 8.3 46.9 69 3 37.4
02:20 1014 29.94 843 24.89 8.1 46.6 70 3 37.4
02:25 1014 29.94 843 24.89 8.1 46.6 70 3 37.4
02:30 1014 29.94 843 24.89 8.1 46.6 70 2.9 37.3
02:35 1014 29.94 843 24.89 8.1 46.6 70 2.9 37.2
02:40 1014 29.94 843 24.89 8.1 46.5 70 2.9 37.3
02:45 1014 29.94 843 24.89 8 46.4 70 2.8 37.1
02:50 1014 29.94 843 24.89 8 46.3 70 2.8 37
02:55 1014 29.94 843 24.89 8 46.3 69 2.7 36.8
03:00 1014 29.94 843 24.89 8 46.3 70 2.8 37
03:05 1013 29.91 843 24.89 7.8 46.1 70 2.7 36.9
03:10 1013 29.91 843 24.89 7.7 45.8 70 2.6 36.7
03:15 1013 29.91 843 24.89 7.6 45.7 70 2.6 36.6
03:20 1013 29.91 843 24.89 7.6 45.6 70 2.5 36.5
03:25 1013 29.91 843 24.89 7.6 45.6 70 2.5 36.4
03:30 1013 29.91 843 24.89 7.4 45.4 70 2.4 36.3
03:35 1013 29.91 843 24.89 7.4 45.2 71 2.5 36.4
03:40 1013 29.91 843 24.89 7.2 45 71 2.3 36.2
03:45 1013 29.91 843 24.89 7.2 44.9 71 2.2 36
03:50 1013 29.91 843 24.89 7.2 44.9 70 2.1 35.8
03:55 1013 29.91 843 24.89 7.2 45 70 2 35.7
04:00 1014 29.94 843 24.89 7.3 45.2 69 2.1 35.7
04:05 1014 29.94 843 24.89 7.3 45.1 69 2.1 35.7
04:10 1014 29.94 843 24.89 7.2 44.9 70 2.1 35.8
04:15 1014 29.94 843 24.89 7 44.6 71 2 35.6
04:20 1014 29.94 843 24.89 6.8 44.3 72 2.1 35.8
04:25 1014 29.94 843 24.89 6.6 43.8 73 2.1 35.8
04:30 1014 29.94 843 24.89 6.3 43.3 74 2 35.6
04:35 1014 29.94 843 24.89 6.1 43 74 1.8 35.2
04:40 1014 29.94 843 24.89 6.2 43.2 73 1.8 35.2
04:45 1014 29.94 843 24.89 6.3 43.3 73 1.9 35.4
04:50 1014 29.94 843 24.89 6.3 43.3 73 1.9 35.4
04:55 1014 29.94 843 24.89 6.2 43.1 74 1.9 35.5
05:00 1014 29.94 843 24.89 6.1 42.9 74 1.8 35.3
05:05 1014 29.94 843 24.89 6.1 43 74 1.9 35.3
05:10 1014 29.94 843 24.89 6.2 43.2 74 1.9 35.4
05:15 1014 29.94 843 24.89 6.2 43.2 74 1.9 35.5
05:20 1014 29.94 843 24.89 6.2 43.1 74 1.9 35.4
05:25 1014 29.94 843 24.89 6.1 43 74 1.9 35.4
05:30 1014 29.94 843 24.89 6 42.7 75 1.9 35.3
05:35 1014 29.94 843 24.89 5.9 42.6 75 1.8 35.2
05:40 1014 29.94 843 24.89 5.8 42.4 76 1.8 35.3
05:45 1014 29.94 843 24.89 5.8 42.5 76 1.8 35.3
05:50 1014 29.94 843 24.89 5.8 42.5 76 1.9 35.4
05:55 1014 29.94 844 24.92 5.8 42.5 77 2 35.7
06:00 1014 29.94 844 24.92 5.8 42.5 77 2.1 35.8
06:05 1015 29.97 844 24.92 5.8 42.5 78 2.2 36
06:10 1015 29.97 844 24.92 5.7 42.3 78 2.3 36.1
06:15 1015 29.97 844 24.92 5.7 42.2 80 2.4 36.4
06:20 1015 29.97 844 24.92 5.7 42.2 80 2.4 36.4
06:25 1015 29.97 844 24.92 5.8 42.5 79 2.4 36.3
06:30 1015 29.97 844 24.92 6.1 43 78 2.6 36.8
06:35 1015 29.97 844 24.92 6.4 43.5 78 2.8 37.1
06:40 1015 29.97 844 24.92 6.6 44 77 3 37.4
06:45 1015 29.97 844 24.92 6.8 44.2 77 3 37.5
06:50 1015 29.97 844 24.92 6.8 44.2 77 3.1 37.6
06:55 1015 29.97 844 24.92 6.9 44.5 76 3.1 37.5
07:00 1015 29.97 844 24.92 6.9 44.5 77 3.1 37.7
07:05 1015 29.97 844 24.92 6.9 44.4 76 3.1 37.5
07:10 1015 29.97 844 24.92 7 44.6 76 3 37.5
07:15 1015 29.97 844 24.92 7 44.6 76 3 37.4
07:20 1015 29.97 844 24.92 7.1 44.7 75 3 37.3
07:25 1015 29.97 844 24.92 7.3 45.1 76 3.2 37.8
07:30 1015 29.97 844 24.92 7.1 44.8 75 3 37.4
07:35 1015 29.97 844 24.92 7.4 45.2 74 3.1 37.5
07:40 1015 29.97 844 24.92 7.3 45.1 74 2.9 37.2
07:45 1015 29.97 844 24.92 7.4 45.3 74 3 37.4
07:50 1014 29.94 844 24.92 7.3 45.2 74 3 37.4
07:55 1014 29.94 844 24.92 7 44.6 74 2.8 37
08:00 1014 29.94 843 24.89 6.9 44.3 76 3 37.4
08:05 1014 29.94 843 24.89 7.1 44.7 74 2.8 37
08:10 1014 29.94 843 24.89 7.2 44.9 75 3.1 37.6
08:15 1014 29.94 843 24.89 6.8 44.2 76 2.8 37
08:20 1014 29.94 843 24.89 6.9 44.4 76 2.9 37.3
08:25 1014 29.94 843 24.89 7.2 44.9 73 2.7 36.9
08:30 1014 29.94 843 24.89 7.2 44.9 74 2.9 37.1
08:35 1014 29.94 843 24.89 7.5 45.5 72 2.8 37.1
08:40 1014 29.94 843 24.89 7.5 45.6 72 2.9 37.2
08:45 1014 29.94 843 24.89 7.6 45.7 71 2.7 36.9
08:50 1014 29.94 843 24.89 7.4 45.3 73 2.8 37.1
08:55 1014 29.94 843 24.89 7.5 45.6 72 2.8 37
09:00 1014 29.94 843 24.89 7.6 45.8 71 2.8 37
09:05 1014 29.94 843 24.89 7.9 46.2 70 2.8 37
09:10 1014 29.94 843 24.89 8.2 46.8 69 2.9 37.2
09:15 1014 29.94 843 24.89 8.1 46.6 68 2.5 36.5
09:20 1014 29.94 843 24.89 8.2 46.8 68 2.6 36.7
09:25 1014 29.94 843 24.89 8.3 47 69 3 37.3
09:30 1014 29.94 843 24.89 8.1 46.6 68 2.6 36.7
09:35 1014 29.94 843 24.89 8.1 46.6 68 2.6 36.6
09:40 1014 29.94 843 24.89 8.1 46.5 68 2.6 36.6
09:45 1014 29.94 843 24.89 8.4 47.2 66 2.4 36.3
09:50 1014 29.94 843 24.89 8.3 46.9 66 2.4 36.3
09:55 1014 29.94 843 24.89 8.6 47.5 64 2.3 36.1
10:00 1014 29.94 843 24.89 8.8 47.8 63 2.1 35.8
10:05 1014 29.94 843 24.89 9.3 48.7 62 2.3 36.2
10:10 1014 29.94 843 24.89 9.2 48.5 64 2.8 37
10:15 1014 29.94 843 24.89 9.3 48.7 62 2.4 36.3
10:20 1014 29.94 843 24.89 9.6 49.3 62 2.6 36.7
10:25 1014 29.94 843 24.89 9.8 49.6 62 3 37.3
10:30 1013 29.91 843 24.89 9.7 49.4 61 2.5 36.5
10:35 1013 29.91 843 24.89 9.6 49.3 64 3 37.5
10:40 1013 29.91 843 24.89 9.6 49.3 62 2.8 37
10:45 1013 29.91 842 24.86 9.7 49.4 61 2.5 36.4
10:50 1013 29.91 842 24.86 9.8 49.7 61 2.8 37
10:55 1013 29.91 842 24.86 10.1 50.2 60 2.7 36.9
11:00 1013 29.91 842 24.86 10.5 50.9 60 3 37.4
11:05 1013 29.91 842 24.86 10.3 50.6 61 3.2 37.7
11:10 1013 29.91 842 24.86 10.2 50.3 59 2.6 36.7
11:15 1013 29.91 842 24.86 10.7 51.3 61 3.5 38.3
11:20 1013 29.91 842 24.86 10.4 50.7 60 3 37.5
11:25 1013 29.91 842 24.86 10.5 51 59 2.9 37.2
11:30 1013 29.91 842 24.86 10.9 51.7 58 3.1 37.5
11:35 1013 29.91 842 24.86 10.6 51 61 3.4 38.1
11:40 1013 29.91 842 24.86 10.4 50.8 59 2.7 36.9
11:45 1013 29.91 842 24.86 10.6 51.2 59 2.9 37.3
11:50 1013 29.91 842 24.86 10.6 51 57 2.5 36.6
11:55 1013 29.91 842 24.86 11.2 52.2 57 3 37.5
12:00 1012 29.88 842 24.86 10.8 51.5 57 2.7 36.8
12:05 1012 29.88 842 24.86 11.3 52.3 57 3 37.4
12:10 1012 29.88 842 24.86 11.1 52 57 3.1 37.5
12:15 1012 29.88 841 24.83 10.9 51.6 58 2.9 37.3
12:20 1012 29.88 841 24.83 11.1 52 58 3.1 37.6
12:25 1012 29.88 841 24.83 10.8 51.5 57 2.7 36.8
12:30 1012 29.88 841 24.83 10.7 51.3 58 2.9 37.2
12:35 1012 29.88 841 24.83 10.8 51.4 57 2.7 36.8
12:40 1012 29.88 841 24.83 11.1 51.9 57 3 37.3
12:45 1012 29.88 841 24.83 11.3 52.3 56 2.8 37.1
12:50 1012 29.88 841 24.83 11.1 52 58 3.1 37.7
12:55 1012 29.88 841 24.83 10.9 51.7 57 2.7 36.9
13:00 1012 29.88 841 24.83 10.7 51.3 58 2.9 37.3
13:05 1012 29.88 841 24.83 10.4 50.7 59 2.7 36.8
13:10 1012 29.88 841 24.83 10.6 51.1 58 2.7 36.8
13:15 1012 29.88 841 24.83 10.4 50.7 59 2.7 36.9
13:20 1012 29.88 841 24.83 10.2 50.4 60 2.8 37
13:25 1012 29.88 841 24.83 10.1 50.1 60 2.6 36.7
13:30 1012 29.88 841 24.83 10.3 50.6 59 2.8 37
13:35 1012 29.88 841 24.83 10.1 50.2 62 3.1 37.7
13:40 1012 29.88 841 24.83 10 49.9 61 2.7 36.9
13:45 1012 29.88 841 24.83 9.7 49.4 63 3.1 37.5
13:50 1012 29.88 841 24.83 9.6 49.4 62 2.8 37.1
13:55 1012 29.88 841 24.83 9.2 48.5 64 2.8 37
14:00 1012 29.88 841 24.83 8.8 47.9 66 2.9 37.2
14:05 1012 29.88 841 24.83 8.6 47.5 65 2.5 36.5
14:10 1012 29.88 841 24.83 8.7 47.7 66 2.8 37.1
14:15 1012 29.88 841 24.83 8.5 47.2 68 2.9 37.3
14:20 1012 29.88 841 24.83 8.4 47 68 2.9 37.1
14:25 1012 29.88 841 24.83 8.2 46.8 69 2.8 37
14:30 1012 29.88 841 24.83 8.3 46.9 67 2.5 36.5
14:35 1012 29.88 841 24.83 8.3 46.9 69 3 37.3
14:40 1012 29.88 841 24.83 8.1 46.5 69 2.7 36.9
14:45 1012 29.88 841 24.83 8.2 46.8 68 2.8 37
14:50 1012 29.88 841 24.83 8.2 46.8 68 2.8 37
14:55 1012 29.88 841 24.83 8.1 46.6 69 2.7 36.8
15:00 1011 29.85 841 24.83 7.9 46.3 70 2.8 37
15:05 1011 29.85 841 24.83 7.9 46.2 69 2.6 36.8
15:10 1011 29.85 841 24.83 8 46.3 70 2.9 37.2
15:15 1011 29.85 841 24.83 7.8 46 71 2.8 37
15:20 1011 29.85 841 24.83 7.8 46 70 2.6 36.8
15:25 1011 29.85 841 24.83 7.7 45.8 71 2.8 37
15:30 1011 29.85 841 24.83 7.7 45.9 70 2.6 36.8
15:35 1011 29.85 841 24.83 7.7 45.9 70 2.6 36.6
15:40 1011 29.85 841 24.83 7.5 45.4 72 2.7 36.9
15:45 1012 29.88 841 24.83 7.4 45.4 71 2.5 36.5
15:50 1012 29.88 841 24.83 7.4 45.3 72 2.6 36.7
15:55 1012 29.88 841 24.83 7.2 45 72 2.5 36.5
16:00 1012 29.88 841 24.83 7.1 44.8 73 2.6 36.8
16:05 1012 29.88 841 24.83 6.9 44.4 74 2.6 36.7
16:10 1012 29.88 841 24.83 6.7 44.1 75 2.6 36.6
16:15 1012 29.88 841 24.83 6.5 43.7 76 2.6 36.6
16:20 1011 29.85 841 24.83 6.2 43.2 77 2.5 36.5
16:25 1011 29.85 840 24.81 6.1 43 77 2.4 36.3
16:30 1011 29.85 841 24.83 6.1 43.1 78 2.5 36.5
16:35 1011 29.85 840 24.81 6 42.8 78 2.5 36.4
16:40 1011 29.85 840 24.81 6 42.7 78 2.4 36.3
16:45 1011 29.85 840 24.81 6.1 43 77 2.4 36.3
16:50 1011 29.85 840 24.81 6.2 43.2 77 2.4 36.3
16:55 1011 29.85 840 24.81 6.2 43.2 77 2.5 36.6
17:00 1011 29.85 840 24.81 6 42.9 77 2.4 36.3
17:05 1011 29.85 840 24.81 6 42.7 77 2.3 36.2
17:10 1011 29.85 840 24.81 6 42.7 77 2.3 36.2
17:15 1011 29.85 840 24.81 6 42.8 77 2.3 36.1
17:20 1011 29.85 840 24.81 6 42.8 78 2.4 36.4
17:25 1011 29.85 840 24.81 5.8 42.5 78 2.2 36
17:30 1011 29.85 840 24.81 5.8 42.4 79 2.4 36.3
17:35 1011 29.85 840 24.81 5.6 42.1 79 2.3 36.2
17:40 1011 29.85 840 24.81 5.5 41.9 79 2.2 36
17:45 1011 29.85 840 24.81 5.5 41.9 79 2.2 36
17:50 1011 29.85 841 24.83 5.4 41.8 79 2.1 35.9
17:55 1011 29.85 840 24.81 5.3 41.6 81 2.3 36.1
18:00 1011 29.85 841 24.83 5.1 41.3 81 2.1 35.7
18:05 1011 29.85 841 24.83 5.1 41.3 81 2.2 35.9
18:10 1011 29.85 841 24.83 5.1 41.2 81 2.1 35.8
18:15 1011 29.85 841 24.83 5.2 41.3 81 2.2 35.9
18:20 1011 29.85 840 24.81 5 41 81 2.1 35.8
18:25 1011 29.85 841 24.83 5.1 41.1 82 2.2 35.9
18:30 1012 29.88 841 24.83 5 40.9 83 2.2 36
18:35 1011 29.85 841 24.83 4.8 40.6 83 2.2 36
18:40 1011 29.85 841 24.83 4.7 40.5 83 2.2 35.9
18:45 1011 29.85 841 24.83 4.7 40.4 85 2.3 36.1
18:50 1011 29.85 841 24.83 4.6 40.2 85 2.3 36.1
18:55 1011 29.85 841 24.83 4.6 40.3 84 2.2 36
19:00 1011 29.85 841 24.83 4.6 40.3 85 2.3 36.1
19:05 1012 29.88 841 24.83 4.5 40.2 85 2.2 36
19:10 1011 29.85 840 24.81 4.5 40 85 2.2 36
19:15 1011 29.85 841 24.83 4.5 40.1 85 2.2 36
19:20 1012 29.88 841 24.83 4.6 40.3 84 2.1 35.9
19:25 1011 29.85 841 24.83 4.6 40.4 84 2.2 35.9
19:30 1012 29.88 841 24.83 4.6 40.3 84 2.1 35.8
19:35 1012 29.88 841 24.83 4.6 40.3 84 2.1 35.7
19:40 1012 29.88 841 24.83 4.6 40.3 83 2 35.6
19:45 1012 29.88 841 24.83 4.6 40.2 84 2 35.7
19:50 1012 29.88 841 24.83 4.6 40.2 84 2 35.6
19:55 1012 29.88 841 24.83 4.5 40.1 84 2.1 35.8
20:00 1012 29.88 841 24.83 4.4 39.8 85 2 35.6
20:05 1012 29.88 841 24.83 4.3 39.7 85 2 35.7
20:10 1012 29.88 841 24.83 4.2 39.5 86 2 35.7
20:15 1012 29.88 841 24.83 4.1 39.4 86 2 35.6
20:20 1012 29.88 841 24.83 4.1 39.3 86 1.9 35.4
20:25 1012 29.88 841 24.83 4.1 39.4 85 1.8 35.3
20:30 1012 29.88 841 24.83 4.2 39.6 84 1.8 35.3
20:35 1012 29.88 841 24.83 4.2 39.5 84 1.7 35
20:40 1012 29.88 841 24.83 4.2 39.6 83 1.6 35
20:45 1012 29.88 841 24.83 4.2 39.5 84 1.7 35
20:50 1012 29.88 841 24.83 4.1 39.4 84 1.6 34.9
20:55 1012 29.88 842 24.86 4.1 39.4 83 1.6 34.8
21:00 1012 29.88 842 24.86 4.1 39.3 84 1.6 35
21:05 1012 29.88 842 24.86 4 39.1 85 1.6 34.9
21:10 1012 29.88 842 24.86 3.9 39 85 1.6 34.9
21:15 1013 29.91 842 24.86 3.8 38.9 85 1.6 34.9
21:20 1013 29.91 842 24.86 3.8 38.9 85 1.5 34.7
21:25 1013 29.91 842 24.86 3.9 39 84 1.4 34.6
21:30 1013 29.91 842 24.86 3.9 38.9 84 1.5 34.7
21:35 1012 29.88 842 24.86 3.8 38.9 84 1.4 34.5
21:40 1012 29.88 842 24.86 3.9 39 83 1.4 34.5
21:45 1013 29.91 842 24.86 3.9 39 83 1.3 34.4
21:50 1013 29.91 842 24.86 3.9 39 83 1.3 34.4
21:55 1012 29.88 842 24.86 3.8 38.9 84 1.3 34.3
22:00 1013 29.91 842 24.86 3.8 38.9 83 1.3 34.3
22:05 1013 29.91 842 24.86 3.8 38.8 84 1.3 34.3
22:10 1013 29.91 842 24.86 3.8 38.8 84 1.3 34.4
22:15 1013 29.91 842 24.86 3.7 38.7 84 1.3 34.4
22:20 1013 29.91 842 24.86 3.7 38.6 84 1.3 34.3
22:25 1013 29.91 842 24.86 3.6 38.6 85 1.3 34.3
22:30 1013 29.91 842 24.86 3.6 38.4 85 1.3 34.3
22:35 1013 29.91 842 24.86 3.5 38.3 85 1.2 34.2
22:40 1013 29.91 842 24.86 3.5 38.3 85 1.2 34.2
22:45 1013 29.91 842 24.86 3.4 38.1 86 1.2 34.2
22:50 1013 29.91 842 24.86 3.4 38 86 1.2 34.1
22:55 1013 29.91 842 24.86 3.3 38 85 1.1 34
23:00 1013 29.91 842 24.86 3.3 38 85 1.1 34
23:05 1013 29.91 842 24.86 3.3 37.9 86 1.1 33.9
23:10 1013 29.91 842 24.86 3.3 37.9 85 1.1 33.9
23:15 1013 29.91 842 24.86 3.3 37.9 85 1 33.8
23:20 1013 29.91 842 24.86 3.3 38 85 1 33.8
23:25 1013 29.91 842 24.86 3.3 37.9 85 0.9 33.7
23:30 1012 29.88 842 24.86 3.3 37.9 84 0.9 33.6
23:35 1012 29.88 842 24.86 3.4 38.1 83 0.8 33.5
23:40 1012 29.88 842 24.86 3.4 38.1 84 0.9 33.7
23:45 1012 29.88 841 24.83 3.3 37.9 85 1 33.8
23:50 1012 29.88 841 24.83 3.2 37.7 85 0.8 33.5
23:55 1012 29.88 841 24.83 3.2 37.8 85 0.9 33.6
24:00 1012 29.88 841 24.83 3.1 37.6 85 0.8 33.4